createdAt,value
2024-01-18T00:00:10.464Z,5.75
2024-01-18T00:01:10.458Z,1.56
2024-01-18T00:02:10.455Z,5.43
2024-01-18T00:03:10.537Z,3.17
2024-01-18T00:04:10.611Z,-3.27
2024-01-18T00:05:10.463Z,-3.59
2024-01-18T00:06:10.934Z,-0.05
2024-01-18T00:07:10.642Z,-3.59
2024-01-18T00:08:11.442Z,5.43
2024-01-18T00:09:10.532Z,-3.92
2024-01-18T00:10:10.538Z,-1.34
2024-01-18T00:11:10.550Z,-3.27
2024-01-18T00:12:10.586Z,-3.27
2024-01-18T00:13:10.591Z,-2.63
2024-01-18T00:14:10.614Z,-4.24
2024-01-18T00:15:10.679Z,-3.27
2024-01-18T00:16:10.640Z,-4.56
2024-01-18T00:17:10.645Z,-2.63
2024-01-18T00:18:10.765Z,-3.92
2024-01-18T00:19:10.819Z,-3.59
2024-01-18T00:20:10.721Z,5.43
2024-01-18T00:21:10.711Z,-1.02
2024-01-18T00:22:10.728Z,-4.88
2024-01-18T00:23:10.742Z,-1.98
2024-01-18T00:24:10.791Z,-1.02
2024-01-18T00:25:10.789Z,5.43
2024-01-18T00:26:10.800Z,-1.66
2024-01-18T00:27:11.383Z,-3.59
2024-01-18T00:28:10.823Z,-3.59
2024-01-18T00:29:10.862Z,-4.56
2024-01-18T00:30:10.907Z,-0.05
2024-01-18T00:31:10.864Z,-2.63
2024-01-18T00:32:10.917Z,-3.27
2024-01-18T00:33:10.976Z,1.24
2024-01-18T00:34:10.906Z,-2.63
2024-01-18T00:35:10.942Z,3.82
2024-01-18T00:36:11.137Z,-3.59
2024-01-18T00:37:10.951Z,-2.63
2024-01-18T00:38:10.973Z,-4.24
2024-01-18T00:39:11.167Z,-3.59
2024-01-18T00:40:11.847Z,-3.59
2024-01-18T00:41:11.011Z,-3.59
2024-01-18T00:42:11.356Z,-1.02
2024-01-18T00:43:11.057Z,5.43
2024-01-18T00:44:11.083Z,-2.95
2024-01-18T00:45:11.145Z,-2.95
2024-01-18T00:46:11.869Z,-4.24
2024-01-18T00:47:11.114Z,-3.59
2024-01-18T00:48:11.269Z,-3.92
2024-01-18T00:49:11.272Z,-3.27
2024-01-18T00:50:11.232Z,-0.05
2024-01-18T00:51:11.216Z,-3.27
2024-01-18T00:52:11.205Z,-3.92
2024-01-18T00:53:11.207Z,-1.66
2024-01-18T00:54:11.327Z,-3.27
2024-01-18T00:55:11.251Z,-2.63
2024-01-18T00:56:11.656Z,-3.27
2024-01-18T00:57:11.316Z,-3.92
2024-01-18T00:58:11.287Z,-3.27
2024-01-18T00:59:11.308Z,-3.92
2024-01-18T01:00:11.360Z,5.75
2024-01-18T01:01:11.362Z,-2.63
2024-01-18T01:02:11.352Z,6.40
2024-01-18T01:03:11.499Z,-3.27
2024-01-18T01:04:11.498Z,6.40
2024-01-18T01:05:11.420Z,-0.37
2024-01-18T01:06:11.626Z,0.60
2024-01-18T01:07:11.443Z,-4.56
2024-01-18T01:08:11.487Z,-3.27
2024-01-18T01:09:11.456Z,-3.92
2024-01-18T01:10:11.496Z,0.27
2024-01-18T01:11:11.473Z,-4.88
2024-01-18T01:12:11.564Z,-4.24
2024-01-18T01:13:11.534Z,-3.27
2024-01-18T01:14:11.592Z,-4.56
2024-01-18T01:15:11.691Z,-3.92
2024-01-18T01:16:11.702Z,-3.92
2024-01-18T01:17:11.578Z,3.17
2024-01-18T01:18:11.805Z,5.11
2024-01-18T01:19:11.751Z,-4.24
2024-01-18T01:20:11.697Z,6.07
2024-01-18T01:21:11.650Z,-3.92
2024-01-18T01:22:11.677Z,5.11
2024-01-18T01:23:11.719Z,-2.63
2024-01-18T01:24:11.710Z,-4.56
2024-01-18T01:25:11.719Z,-4.56
2024-01-18T01:26:11.723Z,-2.95
2024-01-18T01:27:11.781Z,-2.95
2024-01-18T01:28:11.773Z,-4.56
2024-01-18T01:29:11.826Z,-4.24
2024-01-18T01:30:11.943Z,1.24
2024-01-18T01:31:11.795Z,-2.63
2024-01-18T01:32:11.825Z,3.17
2024-01-18T01:33:11.964Z,4.14
2024-01-18T01:34:11.927Z,-4.56
2024-01-18T01:35:11.851Z,-2.95
2024-01-18T01:36:11.917Z,-4.56
2024-01-18T01:37:12.376Z,2.53
2024-01-18T01:38:11.910Z,-4.24
2024-01-18T01:39:11.947Z,-4.88
2024-01-18T01:40:11.926Z,-5.21
2024-01-18T01:41:11.934Z,-4.56
2024-01-18T01:42:12.002Z,-4.88
2024-01-18T01:43:11.971Z,3.82
2024-01-18T01:44:12.049Z,-2.30
2024-01-18T01:45:12.049Z,-4.24
2024-01-18T01:46:12.070Z,-4.88
2024-01-18T01:47:12.028Z,-5.53
2024-01-18T01:48:12.430Z,-3.92
2024-01-18T01:49:12.145Z,-4.56
2024-01-18T01:50:12.176Z,5.43
2024-01-18T01:51:12.115Z,-4.56
2024-01-18T01:52:12.101Z,0.92
2024-01-18T01:53:12.107Z,-4.56
2024-01-18T01:54:12.291Z,2.53
2024-01-18T01:55:14.556Z,-5.21
2024-01-18T01:56:12.156Z,-3.92
2024-01-18T01:57:12.289Z,4.46
2024-01-18T01:58:12.200Z,4.79
2024-01-18T01:59:12.214Z,-0.37
2024-01-18T02:00:12.257Z,-1.34
2024-01-18T02:01:12.256Z,0.92
2024-01-18T02:02:12.295Z,-5.21
2024-01-18T02:03:12.344Z,-4.88
2024-01-18T02:04:12.412Z,-3.59
2024-01-18T02:05:12.350Z,-0.05
2024-01-18T02:06:12.411Z,-4.56
2024-01-18T02:07:12.345Z,-3.59
2024-01-18T02:08:12.352Z,-4.88
2024-01-18T02:09:12.410Z,1.56
2024-01-18T02:10:12.511Z,-4.56
2024-01-18T02:11:12.389Z,-6.49
2024-01-18T02:12:12.442Z,-4.24
2024-01-18T02:13:12.513Z,0.60
2024-01-18T02:14:12.440Z,-4.56
2024-01-18T02:15:12.570Z,-3.92
2024-01-18T02:16:12.520Z,-4.88
2024-01-18T02:17:12.482Z,-4.88
2024-01-18T02:18:12.579Z,-4.56
2024-01-18T02:19:12.606Z,-3.59
2024-01-18T02:20:12.615Z,-3.59
2024-01-18T02:21:12.614Z,3.82
2024-01-18T02:22:12.585Z,3.82
2024-01-18T02:23:12.583Z,0.92
2024-01-18T02:24:12.602Z,-4.88
2024-01-18T02:25:12.613Z,-4.88
2024-01-18T02:26:12.638Z,3.50
2024-01-18T02:27:12.653Z,-0.69
2024-01-18T02:28:12.668Z,-3.92
2024-01-18T02:29:12.680Z,-5.21
2024-01-18T02:30:12.715Z,-4.56
2024-01-18T02:31:12.695Z,4.79
2024-01-18T02:32:12.723Z,-5.21
2024-01-18T02:33:12.822Z,0.92
2024-01-18T02:34:12.855Z,0.92
2024-01-18T02:35:12.767Z,-2.63
2024-01-18T02:36:12.807Z,-4.88
2024-01-18T02:37:12.820Z,-4.88
2024-01-18T02:38:12.818Z,-5.21
2024-01-18T02:39:12.871Z,-4.24
2024-01-18T02:40:12.902Z,-3.27
2024-01-18T02:41:12.867Z,1.88
2024-01-18T02:42:12.922Z,-5.21
2024-01-18T02:43:12.891Z,-1.34
2024-01-18T02:44:12.920Z,-5.21
2024-01-18T02:45:13.122Z,-3.92
2024-01-18T02:46:12.934Z,-5.53
2024-01-18T02:47:12.965Z,-5.21
2024-01-18T02:48:13.106Z,-5.85
2024-01-18T02:49:12.967Z,-6.17
2024-01-18T02:50:13.046Z,-3.92
2024-01-18T02:51:13.041Z,-4.88
2024-01-18T02:52:13.036Z,-5.53
2024-01-18T02:53:13.742Z,-5.21
2024-01-18T02:54:13.141Z,-3.59
2024-01-18T02:55:13.082Z,3.50
2024-01-18T02:56:13.866Z,-6.17
2024-01-18T02:57:13.159Z,-4.88
2024-01-18T02:58:13.133Z,-2.63
2024-01-18T02:59:13.120Z,-0.37
2024-01-18T03:00:13.238Z,3.17
2024-01-18T03:01:13.268Z,-4.88
2024-01-18T03:02:13.172Z,-1.98
2024-01-18T03:03:13.197Z,-3.27
2024-01-18T03:04:13.223Z,4.14
2024-01-18T03:05:13.234Z,-2.95
2024-01-18T03:06:13.293Z,-3.27
2024-01-18T03:07:13.239Z,-4.88
2024-01-18T03:08:13.299Z,-4.56
2024-01-18T03:09:13.323Z,-4.56
2024-01-18T03:10:13.284Z,-1.98
2024-01-18T03:11:13.307Z,-2.95
2024-01-18T03:12:13.356Z,-1.98
2024-01-18T03:13:13.345Z,-4.24
2024-01-18T03:14:13.342Z,-5.21
2024-01-18T03:15:13.467Z,-5.21
2024-01-18T03:16:13.476Z,-4.56
2024-01-18T03:17:13.451Z,-3.92
2024-01-18T03:18:13.476Z,-0.05
2024-01-18T03:19:13.576Z,-4.56
2024-01-18T03:20:13.493Z,4.46
2024-01-18T03:21:13.496Z,-4.56
2024-01-18T03:22:13.465Z,-4.24
2024-01-18T03:23:13.556Z,-3.92
2024-01-18T03:24:13.551Z,-3.92
2024-01-18T03:25:13.539Z,-4.88
2024-01-18T03:26:13.559Z,-3.92
2024-01-18T03:27:13.576Z,2.21
2024-01-18T03:28:13.561Z,-4.56
2024-01-18T03:29:13.572Z,-4.88
2024-01-18T03:30:13.611Z,-4.88
2024-01-18T03:31:13.616Z,1.88
2024-01-18T03:32:13.625Z,-4.56
2024-01-18T03:33:13.821Z,-1.66
2024-01-18T03:34:13.729Z,-3.92
2024-01-18T03:35:13.688Z,-5.21
2024-01-18T03:36:13.728Z,-4.88
2024-01-18T03:37:13.692Z,6.07
2024-01-18T03:38:13.719Z,-4.56
2024-01-18T03:39:13.787Z,-2.63
2024-01-18T03:40:13.744Z,-4.24
2024-01-18T03:41:13.756Z,-5.21
2024-01-18T03:42:13.770Z,5.11
2024-01-18T03:43:13.798Z,1.24
2024-01-18T03:44:13.805Z,-4.56
2024-01-18T03:45:13.878Z,4.14
2024-01-18T03:46:13.833Z,-3.92
2024-01-18T03:47:13.854Z,-4.56
2024-01-18T03:48:13.907Z,-4.88
2024-01-18T03:49:13.982Z,-5.21
2024-01-18T03:50:13.883Z,-5.21
2024-01-18T03:51:13.946Z,-4.24
2024-01-18T03:52:13.970Z,5.11
2024-01-18T03:53:13.941Z,-3.92
2024-01-18T03:54:13.962Z,-4.88
2024-01-18T03:55:14.007Z,-4.56
2024-01-18T03:56:14.017Z,5.75
2024-01-18T03:57:14.908Z,-5.53
2024-01-18T03:58:13.992Z,4.79
2024-01-18T03:59:14.069Z,-5.53
2024-01-18T04:00:14.072Z,-5.85
2024-01-18T04:01:14.086Z,-4.56
2024-01-18T04:02:14.068Z,-4.88
2024-01-18T04:03:14.192Z,-6.17
2024-01-18T04:04:14.233Z,-6.17
2024-01-18T04:05:14.123Z,-4.88
2024-01-18T04:06:15.049Z,1.24
2024-01-18T04:07:14.133Z,-5.53
2024-01-18T04:08:14.159Z,-6.17
2024-01-18T04:09:14.201Z,-5.53
2024-01-18T04:10:14.169Z,-6.49
2024-01-18T04:11:14.187Z,-6.17
2024-01-18T04:12:14.205Z,-6.17
2024-01-18T04:13:15.803Z,-1.02
2024-01-18T04:14:14.248Z,-6.17
2024-01-18T04:15:14.289Z,-6.49
2024-01-18T04:16:14.250Z,-3.92
2024-01-18T04:17:14.295Z,-5.85
2024-01-18T04:18:14.515Z,1.88
2024-01-18T04:19:14.344Z,1.56
2024-01-18T04:20:14.313Z,-6.49
2024-01-18T04:21:14.337Z,-3.92
2024-01-18T04:22:14.342Z,-1.02
2024-01-18T04:23:14.362Z,-8.11
2024-01-18T04:24:14.373Z,-5.85
2024-01-18T04:25:14.397Z,-3.27
2024-01-18T04:26:14.398Z,0.60
2024-01-18T04:27:14.526Z,1.24
2024-01-18T04:28:14.470Z,-4.88
2024-01-18T04:29:14.456Z,-6.49
2024-01-18T04:30:14.506Z,-5.53
2024-01-18T04:31:14.497Z,-7.14
2024-01-18T04:32:14.527Z,-2.95
2024-01-18T04:33:14.685Z,-3.59
2024-01-18T04:34:14.516Z,-4.88
2024-01-18T04:35:14.641Z,3.17
2024-01-18T04:36:14.608Z,2.21
2024-01-18T04:37:14.577Z,-8.75
2024-01-18T04:38:14.602Z,0.27
2024-01-18T04:39:14.638Z,-7.46
2024-01-18T04:40:14.613Z,-0.05
2024-01-18T04:41:14.628Z,3.50
2024-01-18T04:42:14.660Z,-1.66
2024-01-18T04:43:14.679Z,-6.82
2024-01-18T04:44:14.729Z,-7.14
2024-01-18T04:45:14.716Z,-6.82
2024-01-18T04:46:14.708Z,-7.46
2024-01-18T04:47:14.720Z,-6.49
2024-01-18T04:48:14.845Z,2.53
2024-01-18T04:49:14.762Z,-5.21
2024-01-18T04:50:14.766Z,-5.53
2024-01-18T04:51:14.809Z,3.17
2024-01-18T04:52:14.792Z,-1.02
2024-01-18T04:53:14.823Z,-7.14
2024-01-18T04:54:14.882Z,1.24
2024-01-18T04:55:14.867Z,-7.14
2024-01-18T04:56:14.863Z,-5.21
2024-01-18T04:57:14.897Z,-7.46
2024-01-18T04:58:14.882Z,3.17
2024-01-18T04:59:14.916Z,-7.14
2024-01-18T05:00:14.984Z,-6.82
2024-01-18T05:01:14.980Z,-7.14
2024-01-18T05:02:14.936Z,3.50
2024-01-18T05:03:15.419Z,-6.82
2024-01-18T05:04:15.060Z,2.53
2024-01-18T05:05:15.056Z,-2.95
2024-01-18T05:06:15.285Z,-6.82
2024-01-18T05:07:15.090Z,-7.46
2024-01-18T05:08:15.034Z,-3.59
2024-01-18T05:09:15.097Z,-7.14
2024-01-18T05:10:15.979Z,-6.82
2024-01-18T05:11:15.077Z,-7.46
2024-01-18T05:12:15.165Z,-6.49
2024-01-18T05:13:15.109Z,-4.56
2024-01-18T05:14:15.398Z,-6.49
2024-01-18T05:15:15.167Z,-7.78
2024-01-18T05:16:15.152Z,-8.11
2024-01-18T05:17:15.168Z,-6.82
2024-01-18T05:18:15.550Z,2.53
2024-01-18T05:19:15.256Z,-6.82
2024-01-18T05:20:15.205Z,-5.85
2024-01-18T05:21:15.267Z,2.21
2024-01-18T05:22:15.245Z,-6.82
2024-01-18T05:23:15.280Z,-8.11
2024-01-18T05:24:15.311Z,-7.46
2024-01-18T05:25:15.887Z,-1.02
2024-01-18T05:26:15.295Z,-7.78
2024-01-18T05:27:15.321Z,-6.17
2024-01-18T05:28:15.373Z,-1.34
2024-01-18T05:29:15.361Z,-6.49
2024-01-18T05:30:15.390Z,-7.78
2024-01-18T05:31:15.400Z,-9.39
2024-01-18T05:32:15.396Z,-7.14
2024-01-18T05:33:15.509Z,2.85
2024-01-18T05:34:15.479Z,-7.46
2024-01-18T05:35:15.437Z,-7.14
2024-01-18T05:36:15.477Z,-4.88
2024-01-18T05:37:15.469Z,-7.46
2024-01-18T05:38:15.490Z,-7.78
2024-01-18T05:39:15.524Z,-8.11
2024-01-18T05:40:15.508Z,-7.78
2024-01-18T05:41:15.527Z,-7.78
2024-01-18T05:42:15.574Z,-6.49
2024-01-18T05:43:15.556Z,0.60
2024-01-18T05:44:15.571Z,-8.11
2024-01-18T05:45:15.627Z,-9.07
2024-01-18T05:46:15.621Z,-8.11
2024-01-18T05:47:15.607Z,-1.98
2024-01-18T05:48:15.694Z,-7.14
2024-01-18T05:49:15.716Z,-7.14
2024-01-18T05:50:15.920Z,-9.39
2024-01-18T05:51:15.691Z,-6.82
2024-01-18T05:52:15.695Z,-4.24
2024-01-18T05:53:15.710Z,-6.17
2024-01-18T05:54:15.790Z,-2.95
2024-01-18T05:55:15.743Z,-5.21
2024-01-18T05:56:15.747Z,-7.78
2024-01-18T05:57:15.807Z,2.21
2024-01-18T05:58:15.779Z,2.85
2024-01-18T05:59:15.802Z,-1.66
2024-01-18T06:00:15.854Z,-7.46
2024-01-18T06:01:15.896Z,3.17
2024-01-18T06:02:15.832Z,-7.14
2024-01-18T06:03:16.007Z,-8.11
2024-01-18T06:04:15.874Z,-9.07
2024-01-18T06:05:15.897Z,-7.46
2024-01-18T06:06:15.972Z,-8.11
2024-01-18T06:07:15.982Z,-6.82
2024-01-18T06:08:15.929Z,-7.46
2024-01-18T06:09:16.017Z,-0.05
2024-01-18T06:10:15.955Z,3.50
2024-01-18T06:11:15.982Z,0.92
2024-01-18T06:12:15.993Z,-7.14
2024-01-18T06:13:16.008Z,-7.46
2024-01-18T06:14:16.019Z,0.27
2024-01-18T06:15:16.090Z,-7.46
2024-01-18T06:16:16.082Z,-6.49
2024-01-18T06:17:16.086Z,-8.11
2024-01-18T06:18:16.165Z,-8.11
2024-01-18T06:19:16.171Z,-8.11
2024-01-18T06:20:16.803Z,-5.21
2024-01-18T06:21:16.165Z,-7.78
2024-01-18T06:22:16.148Z,-8.43
2024-01-18T06:23:16.878Z,-7.78
2024-01-18T06:24:16.216Z,3.50
2024-01-18T06:25:16.178Z,-7.78
2024-01-18T06:26:16.195Z,-6.17
2024-01-18T06:27:16.222Z,-6.17
2024-01-18T06:28:16.215Z,-7.46
2024-01-18T06:29:16.298Z,-8.11
2024-01-18T06:30:16.312Z,-8.75
2024-01-18T06:31:16.267Z,-7.14
2024-01-18T06:32:16.320Z,-8.43
2024-01-18T06:33:16.396Z,-0.05
2024-01-18T06:34:16.370Z,-7.78
2024-01-18T06:35:16.363Z,1.88
2024-01-18T06:36:16.377Z,3.17
2024-01-18T06:37:16.382Z,-8.43
2024-01-18T06:38:16.412Z,-7.14
2024-01-18T06:39:16.434Z,-7.14
2024-01-18T06:40:16.432Z,-6.17
2024-01-18T06:41:16.438Z,-9.07
2024-01-18T06:42:16.460Z,-7.46
2024-01-18T06:43:16.515Z,-8.11
2024-01-18T06:44:16.464Z,-9.07
2024-01-18T06:45:16.494Z,-8.11
2024-01-18T06:46:16.492Z,-7.78
2024-01-18T06:47:16.586Z,-8.11
2024-01-18T06:48:16.599Z,-7.14
2024-01-18T06:49:16.633Z,-7.14
2024-01-18T06:50:16.548Z,-8.43
2024-01-18T06:51:16.636Z,-0.05
2024-01-18T06:52:16.629Z,-9.39
2024-01-18T06:53:16.624Z,-7.46
2024-01-18T06:54:19.006Z,-7.46
2024-01-18T06:55:16.623Z,-8.43
2024-01-18T06:56:16.648Z,-6.49
2024-01-18T06:57:16.686Z,-10.04
2024-01-18T06:58:16.693Z,-6.82
2024-01-18T06:59:16.711Z,2.21
2024-01-18T07:00:16.747Z,-5.85
2024-01-18T07:01:16.866Z,-7.78
2024-01-18T07:02:16.754Z,-7.78
2024-01-18T07:03:16.888Z,-8.11
2024-01-18T07:04:16.818Z,-8.43
2024-01-18T07:05:16.803Z,-6.82
2024-01-18T07:06:16.845Z,-3.92
2024-01-18T07:07:25.969Z,-8.11
2024-01-18T07:08:16.839Z,-10.04
2024-01-18T07:09:16.875Z,-7.46
2024-01-18T07:10:16.860Z,-8.43
2024-01-18T07:11:16.906Z,-7.46
2024-01-18T07:12:16.919Z,-0.05
2024-01-18T07:13:16.919Z,-7.14
2024-01-18T07:14:16.917Z,-8.11
2024-01-18T07:15:17.029Z,-7.78
2024-01-18T07:16:16.954Z,-7.78
2024-01-18T07:17:16.970Z,-8.75
2024-01-18T07:18:17.083Z,-7.78
2024-01-18T07:19:17.060Z,-7.78
2024-01-18T07:20:17.116Z,-7.78
2024-01-18T07:21:17.044Z,-8.11
2024-01-18T07:22:17.049Z,-8.75
2024-01-18T07:23:17.059Z,-8.75
2024-01-18T07:24:17.085Z,-7.14
2024-01-18T07:25:19.508Z,-5.53
2024-01-18T07:26:17.143Z,-6.17
2024-01-18T07:27:17.149Z,-8.11
2024-01-18T07:28:17.174Z,-8.11
2024-01-18T07:29:17.175Z,-7.46
2024-01-18T07:30:17.193Z,-7.78
2024-01-18T07:31:17.185Z,1.88
2024-01-18T07:32:17.257Z,-7.78
2024-01-18T07:33:17.267Z,-7.46
2024-01-18T07:34:17.622Z,-7.78
2024-01-18T07:35:17.249Z,-4.88
2024-01-18T07:36:17.278Z,1.88
2024-01-18T07:37:17.274Z,-4.88
2024-01-18T07:38:17.300Z,-3.27
2024-01-18T07:39:17.362Z,-7.78
2024-01-18T07:40:17.328Z,-7.78
2024-01-18T07:41:17.359Z,-9.39
2024-01-18T07:42:17.381Z,-7.78
2024-01-18T07:43:17.356Z,-8.75
2024-01-18T07:44:17.384Z,-3.59
2024-01-18T07:45:17.427Z,-8.75
2024-01-18T07:46:17.414Z,-4.24
2024-01-18T07:47:17.438Z,-6.82
2024-01-18T07:48:17.582Z,-7.46
2024-01-18T07:49:17.540Z,-7.78
2024-01-18T07:50:29.904Z,-7.46
2024-01-18T07:51:18.102Z,-8.11
2024-01-18T07:52:17.496Z,-8.11
2024-01-18T07:53:17.515Z,-3.27
2024-01-18T07:54:17.564Z,-7.78
2024-01-18T07:55:20.638Z,-7.46
2024-01-18T07:56:17.566Z,-8.11
2024-01-18T07:57:17.610Z,-7.14
2024-01-18T07:58:17.591Z,0.92
2024-01-18T07:59:17.615Z,-8.11
2024-01-18T08:00:17.646Z,-8.43
2024-01-18T08:01:17.713Z,-7.46
2024-01-18T08:02:17.721Z,-7.46
2024-01-18T08:03:17.776Z,0.92
2024-01-18T08:04:17.743Z,-8.43
2024-01-18T08:05:17.750Z,-4.88
2024-01-18T08:06:17.839Z,-6.82
2024-01-18T08:07:17.796Z,-1.34
2024-01-18T08:08:17.758Z,-2.63
2024-01-18T08:09:17.799Z,1.24
2024-01-18T08:10:17.886Z,-5.21
2024-01-18T08:11:17.809Z,1.24
2024-01-18T08:12:17.837Z,-3.27
2024-01-18T08:13:17.827Z,6.72
2024-01-18T08:14:18.492Z,-3.92
2024-01-18T08:15:17.901Z,7.04
2024-01-18T08:16:17.881Z,1.56
2024-01-18T08:17:17.894Z,-2.30
2024-01-18T08:18:18.190Z,-0.05
2024-01-18T08:19:18.010Z,-2.30
2024-01-18T08:20:17.978Z,-2.63
2024-01-18T08:21:17.976Z,-1.98
2024-01-18T08:22:17.963Z,1.24
2024-01-18T08:23:17.998Z,-0.37
2024-01-18T08:24:18.012Z,3.50
2024-01-18T08:25:18.005Z,-0.69
2024-01-18T08:26:18.029Z,8.65
2024-01-18T08:27:18.143Z,4.14
2024-01-18T08:28:18.049Z,-1.02
2024-01-18T08:29:18.148Z,-0.37
2024-01-18T08:30:18.187Z,3.50
2024-01-18T08:31:18.124Z,0.60
2024-01-18T08:32:18.191Z,0.27
2024-01-18T08:33:18.224Z,3.50
2024-01-18T08:34:18.156Z,0.27
2024-01-18T08:35:18.207Z,10.91
2024-01-18T08:36:18.336Z,1.56
2024-01-18T08:37:18.339Z,0.27
2024-01-18T08:38:18.269Z,9.30
2024-01-18T08:39:18.275Z,0.92
2024-01-18T08:40:18.253Z,11.55
2024-01-18T08:41:18.244Z,2.85
2024-01-18T08:42:18.391Z,1.24
2024-01-18T08:43:18.280Z,2.85
2024-01-18T08:44:18.292Z,1.56
2024-01-18T08:45:18.430Z,8.65
2024-01-18T08:46:18.361Z,2.21
2024-01-18T08:47:20.649Z,4.79
2024-01-18T08:48:18.424Z,2.21
2024-01-18T08:49:18.463Z,4.79
2024-01-18T08:50:18.394Z,2.21
2024-01-18T08:51:18.481Z,3.17
2024-01-18T08:52:18.592Z,12.20
2024-01-18T08:53:18.415Z,7.36
2024-01-18T08:54:18.605Z,10.91
2024-01-18T08:55:18.451Z,3.17
2024-01-18T08:56:22.567Z,2.85
2024-01-18T08:57:19.501Z,3.50
2024-01-18T08:58:18.515Z,13.16
2024-01-18T08:59:18.546Z,2.85
2024-01-18T09:00:18.667Z,1.56
2024-01-18T09:01:18.579Z,12.20
2024-01-18T09:02:23.562Z,3.17
2024-01-18T09:03:19.923Z,3.82
2024-01-18T09:04:18.681Z,3.82
2024-01-18T09:05:18.649Z,4.79
2024-01-18T09:06:18.758Z,5.75
2024-01-18T09:07:18.713Z,15.42
2024-01-18T09:08:18.740Z,3.50
2024-01-18T09:09:18.685Z,6.40
2024-01-18T09:10:18.713Z,4.46
2024-01-18T09:11:18.706Z,9.30
2024-01-18T09:12:18.779Z,4.79
2024-01-18T09:13:20.467Z,4.14
2024-01-18T09:14:18.781Z,5.75
2024-01-18T09:15:18.807Z,5.11
2024-01-18T09:16:18.781Z,8.01
2024-01-18T09:17:19.418Z,5.11
2024-01-18T09:18:18.999Z,5.43
2024-01-18T09:19:18.938Z,11.87
2024-01-18T09:20:18.876Z,8.33
2024-01-18T09:21:18.945Z,8.33
2024-01-18T09:22:18.870Z,8.65
2024-01-18T09:23:18.892Z,6.07
2024-01-18T09:24:18.955Z,13.81
2024-01-18T09:25:18.934Z,14.13
2024-01-18T09:26:18.926Z,8.33
2024-01-18T09:27:18.959Z,7.04
2024-01-18T09:28:19.822Z,5.43
2024-01-18T09:29:18.974Z,6.72
2024-01-18T09:30:19.023Z,7.69
2024-01-18T09:31:30.273Z,8.01
2024-01-18T09:32:19.015Z,9.30
2024-01-18T09:33:19.068Z,7.04
2024-01-18T09:34:19.073Z,16.71
2024-01-18T09:35:19.112Z,8.01
2024-01-18T09:36:19.163Z,9.94
2024-01-18T09:37:19.145Z,8.97
2024-01-18T09:38:19.104Z,8.65
2024-01-18T09:39:19.212Z,7.69
2024-01-18T09:40:19.168Z,8.65
2024-01-18T09:41:19.175Z,10.59
2024-01-18T09:42:19.284Z,5.43
2024-01-18T09:43:20.600Z,7.36
2024-01-18T09:44:19.356Z,13.81
2024-01-18T09:45:19.293Z,12.52
2024-01-18T09:46:19.240Z,8.01
2024-01-18T09:47:19.363Z,15.10
2024-01-18T09:48:19.364Z,7.69
2024-01-18T09:49:19.324Z,7.36
2024-01-18T09:50:19.394Z,8.33
2024-01-18T09:51:19.485Z,5.75
2024-01-18T09:52:19.381Z,11.55
2024-01-18T09:53:19.379Z,7.36
2024-01-18T09:54:19.652Z,8.65
2024-01-18T09:55:19.399Z,10.59
2024-01-18T09:56:19.511Z,9.30
2024-01-18T09:57:19.440Z,8.01
2024-01-18T09:58:20.335Z,10.59
2024-01-18T09:59:19.524Z,8.33
2024-01-18T10:00:19.527Z,9.62
2024-01-18T10:01:19.622Z,7.69
2024-01-18T10:02:19.512Z,15.42
2024-01-18T10:03:19.577Z,8.01
2024-01-18T10:04:19.543Z,8.01
2024-01-18T10:05:19.568Z,9.30
2024-01-18T10:06:19.858Z,9.94
2024-01-18T10:07:19.684Z,11.23
2024-01-18T10:08:19.685Z,17.03
2024-01-18T10:09:19.604Z,9.62
2024-01-18T10:10:19.651Z,15.42
2024-01-18T10:11:19.642Z,8.65
2024-01-18T10:12:19.688Z,10.26
2024-01-18T10:13:19.664Z,8.97
2024-01-18T10:14:19.748Z,9.30
2024-01-18T10:15:19.707Z,8.33
2024-01-18T10:16:19.732Z,8.97
2024-01-18T10:17:19.751Z,10.59
2024-01-18T10:18:19.872Z,10.91
2024-01-18T10:19:20.317Z,11.87
2024-01-18T10:20:19.886Z,9.62
2024-01-18T10:21:20.388Z,14.78
2024-01-18T10:22:19.857Z,10.91
2024-01-18T10:23:19.840Z,10.59
2024-01-18T10:24:19.863Z,18.00
2024-01-18T10:25:19.871Z,11.87
2024-01-18T10:26:19.915Z,18.00
2024-01-18T10:27:19.930Z,20.90
2024-01-18T10:28:19.934Z,18.32
2024-01-18T10:29:19.953Z,12.20
2024-01-18T10:30:19.992Z,11.23
2024-01-18T10:31:19.990Z,12.20
2024-01-18T10:32:19.978Z,10.91
2024-01-18T10:33:20.238Z,9.94
2024-01-18T10:34:20.084Z,13.49
2024-01-18T10:35:20.012Z,9.94
2024-01-18T10:36:20.964Z,18.00
2024-01-18T10:37:20.107Z,13.16
2024-01-18T10:38:20.093Z,10.91
2024-01-18T10:39:20.297Z,9.94
2024-01-18T10:40:21.041Z,9.62
2024-01-18T10:41:20.138Z,8.65
2024-01-18T10:42:20.161Z,11.55
2024-01-18T10:43:20.152Z,18.32
2024-01-18T10:44:20.174Z,8.65
2024-01-18T10:45:20.248Z,8.01
2024-01-18T10:46:20.190Z,11.23
2024-01-18T10:47:20.214Z,10.59
2024-01-18T10:48:20.262Z,10.91
2024-01-18T10:49:20.291Z,10.26
2024-01-18T10:50:20.261Z,10.91
2024-01-18T10:51:20.270Z,10.59
2024-01-18T10:52:20.284Z,10.91
2024-01-18T10:53:20.318Z,18.00
2024-01-18T10:54:26.125Z,9.94
2024-01-18T10:55:20.344Z,10.91
2024-01-18T10:56:20.410Z,13.49
2024-01-18T10:57:20.455Z,8.65
2024-01-18T10:58:20.731Z,9.94
2024-01-18T10:59:20.402Z,12.52
2024-01-18T11:00:20.493Z,19.29
2024-01-18T11:01:20.475Z,10.91
2024-01-18T11:02:20.994Z,9.94
2024-01-18T11:03:21.439Z,10.91
2024-01-18T11:04:20.597Z,8.33
2024-01-18T11:05:20.830Z,9.30
2024-01-18T11:06:20.633Z,17.68
2024-01-18T11:07:20.700Z,8.65
2024-01-18T11:08:20.630Z,15.42
2024-01-18T11:09:20.847Z,11.55
2024-01-18T11:10:20.582Z,10.59
2024-01-18T11:11:21.457Z,10.59
2024-01-18T11:12:20.738Z,11.55
2024-01-18T11:13:20.608Z,11.23
2024-01-18T11:14:20.667Z,13.81
2024-01-18T11:15:20.683Z,18.32
2024-01-18T11:16:20.692Z,11.55
2024-01-18T11:17:20.744Z,10.26
2024-01-18T11:18:20.818Z,15.42
2024-01-18T11:19:20.837Z,11.87
2024-01-18T11:20:20.827Z,11.23
2024-01-18T11:21:20.821Z,9.94
2024-01-18T11:22:20.757Z,11.55
2024-01-18T11:23:20.779Z,11.55
2024-01-18T11:24:20.821Z,14.45
2024-01-18T11:25:20.826Z,10.59
2024-01-18T11:26:20.870Z,10.59
2024-01-18T11:27:21.387Z,11.23
2024-01-18T11:28:20.854Z,12.52
2024-01-18T11:29:21.031Z,12.84
2024-01-18T11:30:20.987Z,20.90
2024-01-18T11:31:21.022Z,15.42
2024-01-18T11:32:21.366Z,19.93
2024-01-18T11:33:21.124Z,13.16
2024-01-18T11:34:21.110Z,11.55
2024-01-18T11:35:21.101Z,18.32
2024-01-18T11:36:21.091Z,13.16
2024-01-18T11:37:20.977Z,11.87
2024-01-18T11:38:21.062Z,12.20
2024-01-18T11:39:21.214Z,12.84
2024-01-18T11:40:21.117Z,22.51
2024-01-18T11:41:22.199Z,13.16
2024-01-18T11:42:22.145Z,16.06
2024-01-18T11:43:21.091Z,12.84
2024-01-18T11:44:21.313Z,12.20
2024-01-18T11:45:21.241Z,12.84
2024-01-18T11:46:21.168Z,20.25
2024-01-18T11:47:21.133Z,21.87
2024-01-18T11:48:22.438Z,12.84
2024-01-18T11:49:21.269Z,14.78
2024-01-18T11:50:21.165Z,11.55
2024-01-18T11:51:21.371Z,12.84
2024-01-18T11:52:21.430Z,12.84
2024-01-18T11:53:22.051Z,20.90
2024-01-18T11:54:21.648Z,9.94
2024-01-18T11:55:33.457Z,11.55
2024-01-18T11:56:21.308Z,13.81
2024-01-18T11:57:21.343Z,12.52
2024-01-18T11:58:21.286Z,13.49
2024-01-18T11:59:21.352Z,13.81
2024-01-18T12:00:21.361Z,21.22
2024-01-18T12:01:21.445Z,14.45
2024-01-18T12:02:21.431Z,16.71
2024-01-18T12:03:21.452Z,14.78
2024-01-18T12:04:21.478Z,12.20
2024-01-18T12:05:21.543Z,13.16
2024-01-18T12:06:21.655Z,13.16
2024-01-18T12:07:22.617Z,11.87
2024-01-18T12:08:21.572Z,12.52
2024-01-18T12:09:21.565Z,13.81
2024-01-18T12:10:21.817Z,20.25
2024-01-18T12:11:21.580Z,11.87
2024-01-18T12:12:22.445Z,17.35
2024-01-18T12:13:21.627Z,11.55
2024-01-18T12:14:21.567Z,12.52
2024-01-18T12:15:22.719Z,12.20
2024-01-18T12:16:21.605Z,16.06
2024-01-18T12:17:21.757Z,11.55
2024-01-18T12:18:21.784Z,11.87
2024-01-18T12:19:21.672Z,18.64
2024-01-18T12:20:21.798Z,11.23
2024-01-18T12:21:21.748Z,11.55
2024-01-18T12:22:21.725Z,20.25
2024-01-18T12:23:22.421Z,11.55
2024-01-18T12:24:21.889Z,10.59
2024-01-18T12:25:21.755Z,18.96
2024-01-18T12:26:22.366Z,10.91
2024-01-18T12:27:21.884Z,18.32
2024-01-18T12:28:21.832Z,20.90
2024-01-18T12:29:21.848Z,12.20
2024-01-18T12:30:22.298Z,11.23
2024-01-18T12:31:21.872Z,11.87
2024-01-18T12:32:21.941Z,12.84
2024-01-18T12:33:22.256Z,18.32
2024-01-18T12:34:22.233Z,13.81
2024-01-18T12:35:21.923Z,13.81
2024-01-18T12:36:21.970Z,20.25
2024-01-18T12:37:21.941Z,10.59
2024-01-18T12:38:22.045Z,9.62
2024-01-18T12:39:23.774Z,9.30
2024-01-18T12:40:21.965Z,11.23
2024-01-18T12:41:22.085Z,13.16
2024-01-18T12:42:22.080Z,12.84
2024-01-18T12:43:22.077Z,9.62
2024-01-18T12:44:22.045Z,18.00
2024-01-18T12:45:22.098Z,12.84
2024-01-18T12:46:22.144Z,8.33
2024-01-18T12:47:22.215Z,8.97
2024-01-18T12:48:22.328Z,6.72
2024-01-18T12:49:22.253Z,6.40
2024-01-18T12:50:22.242Z,6.72
2024-01-18T12:51:22.233Z,5.75
2024-01-18T12:52:22.213Z,6.07
2024-01-18T12:53:22.236Z,3.82
2024-01-18T12:54:22.333Z,5.75
2024-01-18T12:55:22.263Z,5.43
2024-01-18T12:56:22.254Z,5.11
2024-01-18T12:57:22.277Z,15.10
2024-01-18T12:58:22.283Z,8.65
2024-01-18T12:59:22.374Z,5.75